Terminal Aerodrome Forecast
Issued by NWS Cleveland, OH

Home | Current Version | Previous Version | Graphics & Text | Print | Product List | Glossary On
Versions: 1 2 3 4 5 6 7 8 9 10 11 12 13 14 15 16 17 18 19 20 21 22 23 24 25
324
FTUS41 KCLE 271139
TAFYNG
TAF
KYNG 271139Z 2712/2812 24005KT P6SM SCT008 OVC015
      TEMPO 2712/2715 5SM BR OVC008
     FM271700 24008KT P6SM BKN025
     FM271900 24008KT P6SM BKN050
     FM280000 VRB03KT P6SM OVC100
     FM280600 08005KT 5SM -RA BR OVC012
     FM280800 04005KT 3SM -RA BR OVC007=

USA.gov is the U.S. government's official web portal to all federal, state and local government web resources and services.